Time;durP1;ratioP1;P1;durP2;ratioP2;P2;SDS_P1;SDS_P2;PMS_P1;PMS_P2;Temp;Humidity;BMP_temperature;BMP_pressure;BME280_temperature;BME280_humidity;BME280_pressure;Samples;Min_cycle;Max_cycle;Signal;HPM_P1;HPM_P2
2022/03/30 00:00:32;;;;;;;17.30;12.88;;;9.40;91.60;;;;;;5106797;28;20213;-68
2022/03/30 00:02:59;;;;;;;19.10;11.35;;;9.40;91.60;;;;;;5106966;28;20282;-67
2022/03/30 00:05:26;;;;;;;16.00;12.43;;;9.40;91.70;;;;;;5106714;28;20223;-67
2022/03/30 00:07:54;;;;;;;21.77;13.63;;;9.50;91.80;;;;;;5106195;28;20219;-68
2022/03/30 00:10:21;;;;;;;18.30;12.10;;;9.50;91.90;;;;;;5106550;28;20694;-68
2022/03/30 00:12:51;;;;;;;14.73;11.65;;;9.50;92.10;;;;;;5103953;28;20603;-67
2022/03/30 00:15:17;;;;;;;18.98;12.20;;;9.50;91.70;;;;;;5108942;28;20250;-67
2022/03/30 00:17:45;;;;;;;17.23;11.55;;;9.50;91.60;;;;;;5110481;28;20202;-67
2022/03/30 00:20:12;;;;;;;19.25;11.85;;;9.50;91.80;;;;;;5111019;28;20199;-68
2022/03/30 00:22:40;;;;;;;15.77;13.57;;;9.60;91.70;;;;;;5111042;28;20621;-68
2022/03/30 00:25:08;;;;;;;21.75;12.95;;;9.60;91.70;;;;;;5110570;28;20235;-68
2022/03/30 00:27:35;;;;;;;19.15;12.23;;;9.60;91.70;;;;;;5109770;28;20227;-68
2022/03/30 00:30:05;;;;;;;17.40;12.10;;;9.60;91.90;;;;;;5111096;28;20289;-68
2022/03/30 00:32:32;;;;;;;14.73;11.30;;;9.70;92.00;;;;;;5110813;28;20206;-68
2022/03/30 00:34:59;;;;;;;20.83;11.82;;;9.70;92.00;;;;;;5110132;28;20210;-69
2022/03/30 00:37:26;;;;;;;18.35;12.18;;;9.70;92.20;;;;;;5109536;28;20599;-68
2022/03/30 00:39:53;;;;;;;20.58;12.93;;;9.70;91.70;;;;;;5110429;28;20802;-68
2022/03/30 00:42:22;;;;;;;19.90;12.13;;;9.70;91.70;;;;;;5123965;22;20222;-70
2022/03/30 00:44:50;;;;;;;18.77;11.45;;;9.70;91.80;;;;;;5109536;28;20256;-70
2022/03/30 00:47:21;;;;;;;14.30;11.10;;;9.70;92.30;;;;;;5090728;28;20564;-69
2022/03/30 00:49:48;;;;;;;17.98;12.50;;;9.70;92.30;;;;;;5091271;28;20257;-70
2022/03/30 00:52:16;;;;;;;19.95;12.00;;;9.70;92.30;;;;;;5091034;28;20241;-70
2022/03/30 00:54:45;;;;;;;16.38;11.55;;;9.70;92.20;;;;;;5090732;28;20234;-69
2022/03/30 00:57:14;;;;;;;16.92;11.05;;;9.70;92.20;;;;;;5090430;28;20712;-69
2022/03/30 00:59:42;;;;;;;17.45;10.82;;;9.80;92.20;;;;;;5090978;28;20712;-69
2022/03/30 01:02:09;;;;;;;21.30;11.60;;;9.80;91.80;;;;;;5091034;28;20240;-70
2022/03/30 01:04:37;;;;;;;14.88;11.27;;;9.90;91.50;;;;;;5090509;28;20238;-69
2022/03/30 01:07:05;;;;;;;18.23;11.18;;;9.90;91.80;;;;;;5090185;28;20229;-69
2022/03/30 01:09:32;;;;;;;15.93;12.07;;;10.00;91.10;;;;;;5090422;28;20223;-69
2022/03/30 01:11:59;;;;;;;17.60;12.13;;;10.00;90.70;;;;;;5090876;28;20743;-69
2022/03/30 01:14:27;;;;;;;15.85;11.80;;;10.00;90.80;;;;;;5090608;28;20203;-70
2022/03/30 01:16:53;;;;;;;16.77;11.40;;;10.10;90.80;;;;;;5090148;28;20270;-69
2022/03/30 01:19:20;;;;;;;18.35;12.70;;;10.10;91.20;;;;;;5090534;28;20573;-69
2022/03/30 01:21:49;;;;;;;17.98;12.73;;;10.10;90.80;;;;;;5090455;28;20659;-70
2022/03/30 01:24:15;;;;;;;20.42;12.65;;;10.20;90.70;;;;;;5090525;28;20200;-69
2022/03/30 01:26:42;;;;;;;16.48;10.90;;;10.20;90.60;;;;;;5089709;28;20982;-70
2022/03/30 01:34:34;;;;;;;18.75;12.55;;;10.10;91.00;;;;;;5089803;28;20592;-69
2022/03/30 01:37:03;;;;;;;18.75;12.02;;;10.20;91.10;;;;;;5089774;28;20243;-69
2022/03/30 01:39:29;;;;;;;16.65;11.55;;;10.10;90.80;;;;;;5090166;28;20572;-69
2022/03/30 01:42:05;;;;;;;16.40;11.98;;;10.10;91.00;;;;;;5090378;28;20208;-69
2022/03/30 01:44:31;;;;;;;17.45;12.68;;;10.20;91.30;;;;;;5087925;28;20280;-69
2022/03/30 01:46:58;;;;;;;18.77;12.05;;;10.10;91.60;;;;;;5089671;28;20227;-69
2022/03/30 01:49:25;;;;;;;22.65;12.80;;;10.10;91.40;;;;;;5090141;28;20219;-70
2022/03/30 01:51:54;;;;;;;20.50;12.47;;;10.10;91.40;;;;;;5090535;28;20492;-70
2022/03/30 01:54:24;;;;;;;17.30;13.43;;;10.10;91.60;;;;;;5090484;28;20464;-71
2022/03/30 01:56:53;;;;;;;20.35;13.90;;;10.00;91.90;;;;;;5091354;28;20219;-70
2022/03/30 01:59:21;;;;;;;15.88;11.30;;;10.10;91.60;;;;;;5094401;28;20207;-69
2022/03/30 02:01:48;;;;;;;19.08;12.25;;;10.10;91.60;;;;;;5094261;28;20674;-69
2022/03/30 02:04:15;;;;;;;20.60;12.93;;;10.10;91.40;;;;;;5094268;28;20207;-70
2022/03/30 02:06:42;;;;;;;17.25;11.98;;;10.10;91.50;;;;;;5093182;28;20224;-70
2022/03/30 02:09:12;;;;;;;18.38;10.82;;;10.10;91.50;;;;;;5094172;28;20227;-70
2022/03/30 02:11:40;;;;;;;20.35;12.80;;;10.10;91.50;;;;;;5094087;28;20253;-69
2022/03/30 02:14:07;;;;;;;23.48;13.38;;;10.10;91.50;;;;;;5094865;28;20647;-69
2022/03/30 02:16:34;;;;;;;16.98;12.15;;;10.10;91.90;;;;;;5094589;28;20220;-70
2022/03/30 02:19:01;;;;;;;15.98;11.15;;;10.10;91.70;;;;;;5094165;28;20663;-69
2022/03/30 02:21:28;;;;;;;18.10;12.25;;;10.00;91.80;;;;;;5094459;28;20200;-70
2022/03/30 02:23:55;;;;;;;20.02;12.00;;;10.00;91.80;;;;;;5094227;28;20203;-70
2022/03/30 02:26:22;;;;;;;16.73;12.07;;;9.90;92.30;;;;;;5094334;28;20239;-69
2022/03/30 02:28:51;;;;;;;17.70;12.73;;;9.90;92.50;;;;;;5093275;28;20231;-69
2022/03/30 02:31:18;;;;;;;14.05;10.45;;;9.90;92.40;;;;;;5094352;28;20579;-69
2022/03/30 02:33:45;;;;;;;17.63;13.30;;;9.90;92.80;;;;;;5093625;28;20235;-69
2022/03/30 02:36:13;;;;;;;17.42;12.35;;;9.90;92.40;;;;;;5093597;28;20223;-69
2022/03/30 02:38:40;;;;;;;18.67;12.05;;;9.90;92.40;;;;;;5092964;28;20573;-69
2022/03/30 02:41:07;;;;;;;16.15;12.40;;;9.80;92.50;;;;;;5093603;28;20208;-69
2022/03/30 02:43:33;;;;;;;21.35;13.25;;;9.80;92.70;;;;;;5093164;28;20237;-69
2022/03/30 02:46:01;;;;;;;17.77;12.45;;;9.80;92.30;;;;;;5093398;28;20223;-69
2022/03/30 02:48:29;;;;;;;17.50;12.20;;;9.80;92.60;;;;;;5092725;28;20222;-69
2022/03/30 02:50:58;;;;;;;19.35;11.93;;;9.80;92.60;;;;;;5093503;28;20239;-69
2022/03/30 02:53:26;;;;;;;17.13;12.20;;;9.80;92.60;;;;;;5093352;28;20203;-69
2022/03/30 02:55:53;;;;;;;16.02;11.30;;;9.80;92.70;;;;;;5093470;28;20661;-69
2022/03/30 02:58:20;;;;;;;17.80;12.55;;;9.80;92.40;;;;;;5093067;28;20658;-69
2022/03/30 03:00:47;;;;;;;20.25;11.82;;;9.80;92.60;;;;;;5093367;28;20204;-69
2022/03/30 03:03:15;;;;;;;17.42;11.95;;;9.70;92.80;;;;;;5093518;28;20202;-69
2022/03/30 03:05:42;;;;;;;17.75;11.70;;;9.70;92.70;;;;;;5093179;28;20223;-69
2022/03/30 03:08:11;;;;;;;17.65;11.82;;;9.70;92.60;;;;;;5092571;28;20635;-69
2022/03/30 03:10:40;;;;;;;18.83;11.40;;;9.70;92.70;;;;;;5093158;28;20548;-69
2022/03/30 03:13:07;;;;;;;18.48;12.20;;;9.70;92.80;;;;;;5093356;28;20211;-69
2022/03/30 03:15:36;;;;;;;15.90;11.98;;;9.70;92.40;;;;;;5092950;28;20223;-69
2022/03/30 03:18:03;;;;;;;24.23;14.25;;;9.70;92.20;;;;;;5092809;28;20199;-69
2022/03/30 03:20:32;;;;;;;17.63;12.45;;;9.70;92.00;;;;;;5093004;28;20200;-69
2022/03/30 03:23:01;;;;;;;18.65;12.60;;;9.70;91.90;;;;;;5093164;28;20207;-69
2022/03/30 03:25:29;;;;;;;18.98;12.68;;;9.70;91.70;;;;;;5092712;28;20224;-69
2022/03/30 03:27:56;;;;;;;20.65;13.32;;;9.80;91.70;;;;;;5095334;28;20231;-69
2022/03/30 03:30:23;;;;;;;17.83;12.52;;;9.80;91.60;;;;;;5093132;28;20310;-69
2022/03/30 03:32:50;;;;;;;19.75;12.88;;;9.80;92.00;;;;;;5092990;28;20204;-69
2022/03/30 03:35:17;;;;;;;16.80;12.20;;;9.80;92.00;;;;;;5109018;28;20211;-70
2022/03/30 03:37:45;;;;;;;19.40;12.25;;;9.80;91.70;;;;;;5102203;28;20195;-70
2022/03/30 03:40:12;;;;;;;21.40;12.68;;;9.90;91.60;;;;;;5101837;28;20575;-69
2022/03/30 03:42:40;;;;;;;15.93;11.68;;;9.90;91.60;;;;;;5100223;28;20203;-69
2022/03/30 03:45:08;;;;;;;22.85;12.07;;;10.00;91.50;;;;;;5102009;28;20933;-70
2022/03/30 03:47:35;;;;;;;20.00;12.40;;;10.00;91.40;;;;;;5101435;28;20191;-70
2022/03/30 03:50:03;;;;;;;16.67;12.05;;;10.00;91.80;;;;;;5099819;28;20260;-70
2022/03/30 03:52:31;;;;;;;19.05;12.20;;;10.00;92.20;;;;;;5101616;28;20247;-69
2022/03/30 03:54:59;;;;;;;16.33;12.05;;;10.00;91.90;;;;;;5101842;28;20196;-69
2022/03/30 03:57:25;;;;;;;18.92;11.63;;;9.90;92.60;;;;;;5091324;28;20203;-68
2022/03/30 03:59:52;;;;;;;16.35;12.10;;;9.90;92.30;;;;;;5099723;28;20195;-67
2022/03/30 04:02:19;;;;;;;18.20;13.20;;;9.90;92.10;;;;;;5102215;28;20290;-68
2022/03/30 04:04:45;;;;;;;16.38;11.95;;;10.00;91.50;;;;;;5100339;28;20200;-67
2022/03/30 04:07:12;;;;;;;17.02;11.60;;;10.00;91.60;;;;;;5100239;28;20195;-70
2022/03/30 04:09:39;;;;;;;17.98;11.93;;;10.00;91.80;;;;;;5102004;28;20583;-68
2022/03/30 04:12:09;;;;;;;19.02;12.45;;;10.00;91.80;;;;;;5099990;28;20212;-67
2022/03/30 04:14:36;;;;;;;25.85;12.00;;;10.00;91.90;;;;;;5099939;28;20704;-65
2022/03/30 04:17:03;;;;;;;18.75;11.68;;;10.00;91.90;;;;;;5098896;28;20273;-69
2022/03/30 04:19:30;;;;;;;17.00;12.52;;;10.00;92.00;;;;;;5100290;28;20183;-69
2022/03/30 04:21:56;;;;;;;22.98;12.25;;;10.00;92.20;;;;;;5101350;28;20223;-69
2022/03/30 04:24:23;;;;;;;18.73;13.60;;;10.00;92.40;;;;;;5099012;28;20544;-69
2022/03/30 04:26:50;;;;;;;20.60;12.10;;;9.90;93.00;;;;;;5094362;28;20941;-70
2022/03/30 04:29:18;;;;;;;24.98;12.70;;;9.90;93.30;;;;;;5091233;28;20216;-70
2022/03/30 04:31:45;;;;;;;18.67;12.23;;;9.90;93.60;;;;;;5091891;28;20553;-72
2022/03/30 04:34:11;;;;;;;20.52;11.60;;;9.90;93.70;;;;;;5092036;28;20196;-72
2022/03/30 04:36:38;;;;;;;18.63;12.73;;;9.90;93.80;;;;;;5092025;28;20223;-70
2022/03/30 04:39:05;;;;;;;19.45;12.48;;;9.90;94.30;;;;;;5089837;28;20199;-73
2022/03/30 04:41:32;;;;;;;25.15;13.30;;;9.80;94.70;;;;;;5090150;28;20213;-71
2022/03/30 04:43:59;;;;;;;16.40;11.30;;;9.90;95.30;;;;;;5092437;28;20200;-75
2022/03/30 04:46:27;;;;;;;16.65;11.85;;;9.90;95.70;;;;;;5091862;28;20219;-70
2022/03/30 04:48:54;;;;;;;17.23;11.98;;;9.80;96.40;;;;;;5090517;28;20706;-75
2022/03/30 04:51:20;;;;;;;18.33;12.40;;;9.80;97.00;;;;;;5091871;28;20200;-70
2022/03/30 04:53:47;;;;;;;22.50;13.60;;;9.70;97.60;;;;;;5091095;28;20682;-70
2022/03/30 04:56:14;;;;;;;18.45;12.48;;;9.50;97.80;;;;;;5091318;28;20231;-71
2022/03/30 04:58:41;;;;;;;18.02;12.35;;;9.40;97.90;;;;;;5090707;28;20204;-70
2022/03/30 05:01:07;;;;;;;20.70;13.93;;;9.40;98.70;;;;;;5091363;28;20208;-70
2022/03/30 05:03:35;;;;;;;18.40;13.25;;;9.30;99.90;;;;;;5091474;28;20221;-71
2022/03/30 05:06:02;;;;;;;20.63;11.70;;;9.30;99.90;;;;;;5091419;28;20227;-79
2022/03/30 05:08:29;;;;;;;17.60;11.57;;;9.30;99.90;;;;;;5091104;28;20214;-74
2022/03/30 05:10:56;;;;;;;13.82;11.75;;;9.20;99.90;;;;;;5091683;28;20304;-75
2022/03/30 05:13:22;;;;;;;21.05;12.35;;;9.20;99.90;;;;;;5093342;28;20579;-74
2022/03/30 05:15:49;;;;;;;18.85;12.32;;;9.10;99.90;;;;;;5091850;28;20611;-70
2022/03/30 05:18:16;;;;;;;22.27;12.55;;;9.10;99.90;;;;;;5091188;28;20202;-76
2022/03/30 05:20:45;;;;;;;26.58;13.32;;;9.10;99.90;;;;;;5091791;28;20199;-74
2022/03/30 05:23:12;;;;;;;15.75;12.05;;;9.10;99.90;;;;;;5092089;28;20200;-71
2022/03/30 05:25:39;;;;;;;15.20;10.57;;;9.00;99.90;;;;;;5091284;28;20226;-70
2022/03/30 05:28:06;;;;;;;18.50;13.65;;;9.00;99.90;;;;;;5090575;28;20204;-74
2022/03/30 05:30:33;;;;;;;22.65;12.10;;;9.00;99.90;;;;;;5091315;28;20683;-70
2022/03/30 05:33:01;;;;;;;23.70;13.27;;;9.00;99.90;;;;;;5090986;28;20621;-70
2022/03/30 05:35:27;;;;;;;21.00;13.20;;;9.00;99.90;;;;;;5099088;28;20307;-70
2022/03/30 05:37:55;;;;;;;20.02;12.60;;;8.90;99.90;;;;;;5091058;28;20195;-71
2022/03/30 05:40:22;;;;;;;24.38;14.07;;;9.00;99.90;;;;;;5090957;28;20207;-71
2022/03/30 05:42:49;;;;;;;19.90;12.73;;;9.00;99.90;;;;;;5090670;28;20600;-75
2022/03/30 05:45:16;;;;;;;19.67;11.98;;;9.00;99.90;;;;;;5092160;28;20227;-78
2022/03/30 05:47:44;;;;;;;24.95;12.20;;;8.90;99.90;;;;;;5101443;28;20202;-71
2022/03/30 05:50:11;;;;;;;21.85;12.40;;;8.90;99.90;;;;;;5104816;28;20685;-71
2022/03/30 05:52:38;;;;;;;17.55;11.07;;;8.90;99.90;;;;;;5103431;28;20202;-72
2022/03/30 05:55:08;;;;;;;20.50;12.38;;;8.90;99.90;;;;;;5102035;28;20218;-71
2022/03/30 05:57:35;;;;;;;20.75;11.80;;;8.80;99.90;;;;;;5103815;28;20290;-72
2022/03/30 06:00:02;;;;;;;22.17;10.50;;;8.90;99.90;;;;;;5100791;28;20582;-75
2022/03/30 06:02:29;;;;;;;23.52;12.25;;;8.90;99.90;;;;;;5099700;28;20218;-75
2022/03/30 06:04:57;;;;;;;14.73;11.15;;;8.90;99.90;;;;;;5100660;28;20723;-75
2022/03/30 06:07:24;;;;;;;27.80;12.00;;;8.80;99.90;;;;;;5100843;28;20184;-75
2022/03/30 06:09:51;;;;;;;19.92;13.20;;;8.90;99.90;;;;;;5104750;28;20251;-75
2022/03/30 06:12:19;;;;;;;19.08;11.82;;;8.80;99.90;;;;;;5110938;28;20210;-73
2022/03/30 06:14:46;;;;;;;21.67;13.65;;;8.80;99.90;;;;;;5110616;28;20663;-73
2022/03/30 06:17:15;;;;;;;20.25;11.23;;;8.80;99.90;;;;;;5110595;28;20256;-74
2022/03/30 06:19:45;;;;;;;21.38;11.77;;;8.80;99.90;;;;;;5112250;28;20704;-75
2022/03/30 06:22:13;;;;;;;19.35;11.25;;;8.80;99.90;;;;;;5113695;28;20203;-74
2022/03/30 06:24:41;;;;;;;16.60;10.75;;;8.80;99.90;;;;;;5111076;28;20203;-75
2022/03/30 06:27:10;;;;;;;23.33;11.20;;;8.80;99.90;;;;;;5110242;28;20203;-75
2022/03/30 06:29:39;;;;;;;17.95;11.15;;;8.80;99.90;;;;;;5111021;28;20717;-74
2022/03/30 06:32:07;;;;;;;30.20;13.15;;;8.80;99.90;;;;;;5110569;28;20210;-74
2022/03/30 06:34:35;;;;;;;20.55;10.63;;;8.80;99.90;;;;;;5110807;28;20210;-74
2022/03/30 06:37:02;;;;;;;19.00;11.30;;;8.80;99.90;;;;;;5109872;28;20230;-74
2022/03/30 06:39:29;;;;;;;21.40;13.60;;;8.80;99.90;;;;;;5110845;28;20195;-73
2022/03/30 06:41:57;;;;;;;21.02;11.98;;;8.80;99.90;;;;;;5167734;22;20611;-68
2022/03/30 06:44:24;;;;;;;20.27;11.50;;;8.70;99.90;;;;;;5113077;28;20198;-68
2022/03/30 06:46:53;;;;;;;29.58;12.50;;;8.80;99.90;;;;;;5113139;28;20574;-72
2022/03/30 06:49:20;;;;;;;20.30;12.23;;;8.80;99.90;;;;;;5113925;28;20684;-67
2022/03/30 06:51:46;;;;;;;18.60;11.40;;;8.90;99.90;;;;;;5113836;28;20670;-66
2022/03/30 06:54:13;;;;;;;17.75;11.95;;;8.90;99.90;;;;;;5113864;28;20202;-67
2022/03/30 06:56:40;;;;;;;18.92;12.88;;;8.90;99.90;;;;;;5113127;28;20223;-73
2022/03/30 06:59:07;;;;;;;22.83;13.68;;;8.90;99.90;;;;;;5113800;28;20206;-66
2022/03/30 07:01:34;;;;;;;23.83;12.10;;;8.90;99.90;;;;;;5113946;28;20206;-66
2022/03/30 07:04:02;;;;;;;22.95;13.48;;;8.90;99.90;;;;;;5113617;28;20196;-66
2022/03/30 07:06:29;;;;;;;22.95;12.13;;;8.80;99.90;;;;;;5113730;28;20666;-67
2022/03/30 07:11:40;;;;;;;17.77;13.27;;;8.80;99.90;;;;;;5113587;28;20567;-67
2022/03/30 07:14:06;;;;;;;22.50;14.98;;;8.70;99.90;;;;;;5113719;28;20203;-67
2022/03/30 07:16:33;;;;;;;20.33;12.50;;;8.70;99.90;;;;;;5113068;28;20262;-67
2022/03/30 07:19:01;;;;;;;20.00;12.07;;;8.70;99.90;;;;;;5113450;28;20574;-68
2022/03/30 07:21:28;;;;;;;22.40;12.57;;;8.80;99.90;;;;;;5113443;28;20210;-69
2022/03/30 07:23:54;;;;;;;18.33;12.00;;;8.80;99.90;;;;;;5113003;28;20203;-67
2022/03/30 07:26:21;;;;;;;20.80;12.70;;;8.80;99.90;;;;;;5112956;28;20215;-66
2022/03/30 07:28:48;;;;;;;20.92;13.13;;;8.70;99.90;;;;;;5112361;28;20210;-67
2022/03/30 07:31:14;;;;;;;19.92;12.77;;;8.70;99.90;;;;;;5112880;28;20229;-68
2022/03/30 07:33:41;;;;;;;19.88;13.02;;;8.60;99.90;;;;;;5112763;28;20203;-67
2022/03/30 07:36:09;;;;;;;20.27;12.02;;;8.50;99.90;;;;;;5112800;28;20226;-67
2022/03/30 07:38:36;;;;;;;18.50;12.18;;;8.50;99.90;;;;;;5111912;28;20195;-67
2022/03/30 07:41:03;;;;;;;20.27;11.18;;;8.40;99.90;;;;;;5112652;28;20259;-68
2022/03/30 07:43:30;;;;;;;25.10;13.93;;;8.40;99.90;;;;;;5112776;28;20207;-69
2022/03/30 07:45:57;;;;;;;18.92;12.32;;;8.40;99.90;;;;;;5112404;28;20234;-66
2022/03/30 07:48:23;;;;;;;17.20;12.55;;;8.50;99.90;;;;;;5112325;28;20297;-67
2022/03/30 07:50:50;;;;;;;22.50;12.10;;;8.50;99.90;;;;;;5112208;28;20230;-67
2022/03/30 07:53:19;;;;;;;17.50;11.38;;;8.50;99.90;;;;;;5112654;28;20769;-67
2022/03/30 07:55:47;;;;;;;24.52;12.20;;;8.60;99.90;;;;;;5111047;28;20597;-67
2022/03/30 07:58:15;;;;;;;17.17;11.10;;;8.60;99.90;;;;;;5111790;28;20199;-67
2022/03/30 08:00:41;;;;;;;15.75;10.63;;;8.60;99.90;;;;;;5111992;28;20195;-69
2022/03/30 08:03:08;;;;;;;23.60;10.90;;;8.60;99.90;;;;;;5112291;28;20199;-69
2022/03/30 08:05:35;;;;;;;21.55;10.70;;;8.60;99.90;;;;;;5111992;28;20237;-69
2022/03/30 08:08:02;;;;;;;21.88;10.52;;;8.60;99.90;;;;;;5111755;28;20233;-70
2022/03/30 08:10:30;;;;;;;20.27;11.43;;;8.60;99.90;;;;;;5112263;28;20597;-70
2022/03/30 08:12:57;;;;;;;19.50;11.13;;;8.60;99.90;;;;;;5111741;28;20628;-67
2022/03/30 08:15:24;;;;;;;16.90;10.73;;;8.60;99.90;;;;;;5112175;28;20219;-67
2022/03/30 08:17:51;;;;;;;18.67;10.80;;;8.60;99.90;;;;;;5111039;28;20206;-68
2022/03/30 08:23:04;;;;;;;19.85;10.68;;;8.70;99.90;;;;;;5112043;28;20214;-66
2022/03/30 08:25:32;;;;;;;20.90;13.45;;;8.70;99.90;;;;;;5107596;28;20234;-66
2022/03/30 08:28:06;;;;;;;27.02;12.27;;;8.70;99.90;;;;;;5099552;28;20221;-69
2022/03/30 08:30:35;;;;;;;25.25;11.07;;;8.70;99.90;;;;;;5090642;28;20250;-68
2022/03/30 08:33:03;;;;;;;17.15;10.38;;;8.70;99.90;;;;;;5111034;28;20221;-68
2022/03/30 08:35:30;;;;;;;18.45;9.95;;;8.70;99.90;;;;;;5110629;28;20226;-69
2022/03/30 08:37:57;;;;;;;20.40;11.48;;;8.80;99.90;;;;;;5110394;28;20224;-69
2022/03/30 08:40:25;;;;;;;16.63;10.25;;;8.80;99.90;;;;;;5110833;28;20632;-69
2022/03/30 08:42:54;;;;;;;17.70;11.07;;;8.90;99.90;;;;;;5110792;28;20203;-69
2022/03/30 08:45:21;;;;;;;17.67;10.65;;;8.90;99.90;;;;;;5110924;28;20218;-69
2022/03/30 08:47:49;;;;;;;19.50;11.15;;;9.00;99.90;;;;;;5109486;28;20605;-70
2022/03/30 08:50:15;;;;;;;20.35;10.95;;;9.00;99.90;;;;;;5111090;28;20305;-70
2022/03/30 08:52:45;;;;;;;17.05;11.18;;;9.10;99.90;;;;;;5110427;28;20206;-69
2022/03/30 08:55:11;;;;;;;19.70;10.77;;;9.10;99.90;;;;;;5110779;28;20310;-69
2022/03/30 08:57:38;;;;;;;18.98;10.20;;;9.20;99.90;;;;;;5109769;28;20243;-71
2022/03/30 09:00:10;;;;;;;20.85;10.27;;;9.20;99.90;;;;;;5110636;28;20230;-70
2022/03/30 09:02:38;;;;;;;14.10;10.40;;;9.20;99.90;;;;;;5110580;28;20256;-71
2022/03/30 09:05:18;;;;;;;18.95;9.98;;;9.30;99.90;;;;;;5110207;28;20560;-69
2022/03/30 09:07:49;;;;;;;15.48;9.50;;;9.40;99.90;;;;;;5109860;28;20203;-69
2022/03/30 09:10:19;;;;;;;18.02;10.07;;;9.50;99.90;;;;;;5109918;28;20314;-71
2022/03/30 09:12:47;;;;;;;15.85;8.88;;;9.50;99.90;;;;;;5110343;28;20226;-70
2022/03/30 09:15:15;;;;;;;19.20;10.05;;;9.50;99.90;;;;;;5110313;28;20587;-69
2022/03/30 09:17:43;;;;;;;17.52;9.20;;;9.60;99.90;;;;;;5109490;28;20198;-69
2022/03/30 09:20:16;;;;;;;17.85;9.30;;;9.70;99.90;;;;;;5110568;28;20210;-70
2022/03/30 09:22:44;;;;;;;17.33;10.35;;;9.70;99.90;;;;;;5109754;28;20408;-71
2022/03/30 09:25:12;;;;;;;18.08;9.25;;;9.70;99.90;;;;;;5110212;28;20269;-70
2022/03/30 09:27:42;;;;;;;17.38;10.02;;;9.70;99.90;;;;;;5109279;28;20629;-69
2022/03/30 09:30:10;;;;;;;18.48;10.10;;;9.70;99.90;;;;;;5110068;28;20298;-68
2022/03/30 09:32:40;;;;;;;20.52;9.13;;;9.80;99.90;;;;;;5109878;28;20203;-70
2022/03/30 09:35:24;;;;;;;18.83;9.20;;;9.80;99.90;;;;;;5109696;28;20563;-68
2022/03/30 09:38:06;;;;;;;19.67;9.23;;;9.80;99.90;;;;;;5109363;28;20687;-68
2022/03/30 09:40:34;;;;;;;21.90;9.00;;;9.80;99.90;;;;;;5109698;28;20242;-68
2022/03/30 09:43:12;;;;;;;13.30;8.85;;;9.90;99.90;;;;;;5110050;28;20205;-69
2022/03/30 09:45:39;;;;;;;17.00;8.70;;;9.90;99.90;;;;;;5109581;28;20634;-70
2022/03/30 09:48:20;;;;;;;19.25;10.23;;;10.00;99.90;;;;;;5109387;28;20203;-67
2022/03/30 09:50:49;;;;;;;17.10;9.75;;;10.10;99.90;;;;;;5109744;28;20222;-68
2022/03/30 09:53:17;;;;;;;17.77;8.70;;;10.20;99.90;;;;;;5109961;28;20580;-67
2022/03/30 09:55:59;;;;;;;19.55;9.77;;;10.30;99.90;;;;;;5109372;28;20215;-67
2022/03/30 09:58:28;;;;;;;17.25;8.70;;;10.30;99.90;;;;;;5109513;28;20697;-67
2022/03/30 10:01:14;;;;;;;22.95;9.82;;;10.20;99.90;;;;;;5109286;28;20195;-67
2022/03/30 10:03:44;;;;;;;18.90;8.65;;;10.30;99.90;;;;;;5109579;28;20669;-67
2022/03/30 10:06:14;;;;;;;15.10;9.55;;;10.30;99.90;;;;;;5109838;28;20219;-67
2022/03/30 10:08:42;;;;;;;16.00;8.80;;;10.50;99.90;;;;;;5109283;28;20194;-69
2022/03/30 10:11:10;;;;;;;14.43;9.30;;;10.60;99.90;;;;;;5109829;28;20720;-67
2022/03/30 10:13:38;;;;;;;11.27;7.80;;;10.80;99.90;;;;;;5109784;28;20453;-66
2022/03/30 10:16:07;;;;;;;21.80;9.23;;;11.00;99.90;;;;;;5109229;28;20223;-67
2022/03/30 10:18:34;;;;;;;19.20;9.03;;;11.10;99.90;;;;;;5111890;28;20881;-67
2022/03/30 10:21:15;;;;;;;18.27;9.60;;;11.30;99.90;;;;;;5113558;28;20460;-66
2022/03/30 10:23:51;;;;;;;16.40;8.60;;;11.50;99.90;;;;;;5113004;28;20532;-67
2022/03/30 10:26:31;;;;;;;19.37;9.27;;;11.50;99.90;;;;;;5113595;28;20472;-67
2022/03/30 10:29:02;;;;;;;14.23;8.17;;;11.40;99.90;;;;;;5112897;28;20955;-67
2022/03/30 10:31:30;;;;;;;10.93;7.80;;;11.40;99.90;;;;;;5113355;28;20483;-67
2022/03/30 10:33:57;;;;;;;20.43;7.87;;;11.30;99.90;;;;;;5113179;28;20453;-67
2022/03/30 10:36:27;;;;;;;13.32;8.15;;;11.30;99.90;;;;;;5114218;28;20468;-67
2022/03/30 10:39:24;;;;;;;12.60;7.97;;;11.10;99.90;;;;;;5113218;28;20207;-67
2022/03/30 10:41:53;;;;;;;12.57;8.33;;;11.10;99.90;;;;;;5111533;28;20464;-67
2022/03/30 10:44:42;;;;;;;11.57;7.70;;;11.20;99.90;;;;;;5114236;28;20463;-67
2022/03/30 10:47:10;;;;;;;13.67;8.53;;;11.20;99.90;;;;;;5113100;28;20537;-67
2022/03/30 10:49:46;;;;;;;15.83;8.00;;;11.20;99.90;;;;;;5113345;28;20966;-67
2022/03/30 10:52:37;;;;;;;9.70;6.90;;;11.30;99.90;;;;;;5112823;28;20476;-67
2022/03/30 10:55:36;;;;;;;15.27;7.80;;;11.30;99.90;;;;;;5112433;28;20583;-67
2022/03/30 10:58:05;;;;;;;10.90;7.23;;;11.40;99.90;;;;;;5112349;28;20203;-67
2022/03/30 11:00:34;;;;;;;10.37;6.83;;;11.70;99.90;;;;;;5112943;28;20944;-67
2022/03/30 11:03:12;;;;;;;8.67;6.80;;;12.00;99.90;;;;;;5112608;28;20521;-67
2022/03/30 11:05:43;;;;;;;9.80;6.67;;;12.60;99.90;;;;;;5112473;28;20538;-67
2022/03/30 11:08:56;;;;;;;11.73;6.43;;;13.20;99.90;;;;;;5112411;28;20464;-67
2022/03/30 11:11:24;;;;;;;10.33;7.70;;;13.40;99.90;;;;;;5112525;28;21006;-65
2022/03/30 11:14:25;;;;;;;10.30;6.50;;;13.20;99.90;;;;;;5112482;28;20509;-67
2022/03/30 11:16:53;;;;;;;14.13;7.93;;;13.10;99.90;;;;;;5111589;28;20501;-66
2022/03/30 11:19:22;;;;;;;11.93;8.50;;;12.80;99.90;;;;;;5108376;28;20509;-67
2022/03/30 11:22:03;;;;;;;11.00;7.00;;;12.70;99.90;;;;;;5092284;28;20546;-68
2022/03/30 11:24:32;;;;;;;15.50;7.30;;;12.40;99.90;;;;;;5090450;28;20464;-69
2022/03/30 11:27:21;;;;;;;11.43;8.07;;;12.20;99.90;;;;;;5090917;28;20543;-69
2022/03/30 11:30:05;;;;;;;9.77;7.83;;;12.10;99.90;;;;;;5091621;28;20458;-68
2022/03/30 11:32:40;;;;;;;12.13;7.60;;;11.90;99.90;;;;;;5092053;28;20489;-68
2022/03/30 11:35:10;;;;;;;15.30;8.23;;;11.80;99.90;;;;;;5092126;28;20845;-71
2022/03/30 11:37:40;;;;;;;17.30;8.00;;;11.70;99.90;;;;;;5090578;28;20989;-70
2022/03/30 11:40:12;;;;;;;16.13;8.75;;;11.60;99.90;;;;;;5091587;28;20462;-70
2022/03/30 11:42:40;;;;;;;13.00;8.57;;;11.60;99.90;;;;;;5091308;28;20200;-66
2022/03/30 11:45:14;;;;;;;14.93;9.07;;;11.50;99.90;;;;;;5091411;28;20481;-68
2022/03/30 11:47:43;;;;;;;12.20;9.13;;;11.50;99.90;;;;;;5090508;28;20467;-66
2022/03/30 11:50:11;;;;;;;16.70;10.10;;;11.40;99.90;;;;;;5091637;28;20493;-67
2022/03/30 11:52:38;;;;;;;15.60;9.30;;;11.30;99.90;;;;;;5091584;28;20481;-68
2022/03/30 11:55:07;;;;;;;15.55;11.40;;;11.40;99.90;;;;;;5089226;28;20473;-67
2022/03/30 11:57:39;;;;;;;13.00;9.75;;;11.30;99.90;;;;;;5091332;28;20200;-68
2022/03/30 12:00:09;;;;;;;12.25;8.88;;;11.30;99.90;;;;;;5092206;28;20294;-69
2022/03/30 12:02:36;;;;;;;11.73;10.57;;;11.30;99.90;;;;;;5091151;28;20735;-68
2022/03/30 12:05:03;;;;;;;17.77;11.40;;;11.30;99.90;;;;;;5104610;28;20231;-67
2022/03/30 12:07:34;;;;;;;14.73;9.90;;;11.30;99.90;;;;;;5110363;28;20207;-67
2022/03/30 12:10:02;;;;;;;13.73;10.07;;;11.30;99.90;;;;;;5109806;28;20571;-68
2022/03/30 12:12:31;;;;;;;13.57;10.50;;;11.40;99.90;;;;;;5111048;28;20503;-68
2022/03/30 12:15:00;;;;;;;14.80;11.03;;;11.40;99.90;;;;;;5110043;28;20461;-68
2022/03/30 12:17:28;;;;;;;14.23;10.23;;;11.40;99.90;;;;;;5108655;28;20448;-67
2022/03/30 12:19:55;;;;;;;18.30;10.20;;;11.30;99.90;;;;;;5110646;28;20411;-68
2022/03/30 12:22:23;;;;;;;13.55;11.00;;;11.30;99.90;;;;;;5111429;28;20479;-68
2022/03/30 12:24:50;;;;;;;13.75;10.70;;;11.30;99.90;;;;;;5110753;28;20199;-71
2022/03/30 12:27:17;;;;;;;15.02;10.60;;;11.40;99.90;;;;;;5110865;28;20199;-68
2022/03/30 12:29:44;;;;;;;12.63;10.95;;;11.60;99.90;;;;;;5111014;28;20203;-68
2022/03/30 12:32:15;;;;;;;13.27;9.93;;;11.90;99.90;;;;;;5110562;28;20218;-68
2022/03/30 12:34:43;;;;;;;13.60;10.67;;;12.10;99.90;;;;;;5110850;28;20468;-67
2022/03/30 12:37:12;;;;;;;15.60;11.53;;;12.20;99.90;;;;;;5110247;28;20832;-67
2022/03/30 12:39:41;;;;;;;26.53;12.90;;;12.30;99.90;;;;;;5110511;28;20457;-68
2022/03/30 12:42:10;;;;;;;16.97;12.60;;;12.30;99.90;;;;;;5110546;28;20491;-67
2022/03/30 12:44:39;;;;;;;20.93;12.40;;;12.30;99.90;;;;;;5111048;28;20469;-68
2022/03/30 12:47:15;;;;;;;17.67;13.10;;;12.10;99.90;;;;;;5110109;28;20898;-68
2022/03/30 12:49:43;;;;;;;17.53;13.30;;;12.00;99.90;;;;;;5110741;28;20465;-68
2022/03/30 12:52:13;;;;;;;18.02;12.02;;;11.80;99.90;;;;;;5111046;28;20573;-69
2022/03/30 12:54:41;;;;;;;12.98;10.05;;;11.60;99.90;;;;;;5110377;28;20203;-68